Time;durP1;ratioP1;P1;durP2;ratioP2;P2;SDS_P1;SDS_P2;PMS_P1;PMS_P2;Temp;Humidity;BMP_temperature;BMP_pressure;BME280_temperature;BME280_humidity;BME280_pressure;Samples;Min_cycle;Max_cycle;Signal;HPM_P1;HPM_P2
2022/02/21 00:02:06;;;;;;;4.18;0.20;;;20.50;46.50;;;;;;5065818;28;20052;-63
2022/02/21 00:04:33;;;;;;;3.50;1.23;;;20.60;46.60;;;;;;5066108;28;20036;-63
2022/02/21 00:07:01;;;;;;;5.97;0.70;;;20.50;46.50;;;;;;5066101;28;20049;-62
2022/02/21 00:09:29;;;;;;;2.10;0.20;;;20.50;46.50;;;;;;5067447;28;20040;-61
2022/02/21 00:11:56;;;;;;;1.90;0.20;;;20.50;46.50;;;;;;5065861;28;20475;-64
2022/02/21 00:14:23;;;;;;;2.15;0.22;;;20.50;46.50;;;;;;5064724;28;20252;-63
2022/02/21 00:16:51;;;;;;;2.95;0.10;;;20.50;46.50;;;;;;5048343;28;20507;-64
2022/02/21 00:19:18;;;;;;;1.67;0.35;;;20.50;46.40;;;;;;5059404;28;20033;-63
2022/02/21 00:21:45;;;;;;;2.47;0.20;;;20.50;46.40;;;;;;5063669;28;20040;-63
2022/02/21 00:24:12;;;;;;;2.47;0.20;;;20.50;46.40;;;;;;5066508;28;20077;-63
2022/02/21 00:26:39;;;;;;;2.03;0.50;;;20.50;46.40;;;;;;5064847;28;20048;-64
2022/02/21 00:29:08;;;;;;;2.10;0.38;;;20.50;46.40;;;;;;5065153;28;20045;-63
2022/02/21 00:31:35;;;;;;;2.13;0.30;;;20.50;46.30;;;;;;5065362;28;20040;-63
2022/02/21 00:34:04;;;;;;;4.60;0.70;;;20.40;46.30;;;;;;5065564;28;20051;-63
2022/02/21 00:36:32;;;;;;;6.20;0.40;;;20.50;46.30;;;;;;5067150;28;20045;-64
2022/02/21 00:38:59;;;;;;;1.77;0.60;;;20.40;46.20;;;;;;5047810;28;20091;-64
2022/02/21 00:41:26;;;;;;;1.05;0.45;;;20.40;46.20;;;;;;5065426;28;20573;-64
2022/02/21 00:43:53;;;;;;;2.00;0.20;;;20.40;46.20;;;;;;5065538;28;20036;-64
2022/02/21 00:46:20;;;;;;;5.72;0.30;;;20.40;46.20;;;;;;5066079;28;20147;-63
2022/02/21 00:48:47;;;;;;;1.30;0.20;;;20.40;46.10;;;;;;5066736;28;20077;-64
2022/02/21 00:51:16;;;;;;;1.98;0.75;;;20.40;46.10;;;;;;5066193;28;20054;-64
2022/02/21 00:53:43;;;;;;;3.42;0.40;;;20.40;46.10;;;;;;5065663;28;20513;-64
2022/02/21 00:56:11;;;;;;;2.22;0.68;;;20.30;46.10;;;;;;5047318;28;20512;-64
2022/02/21 00:58:38;;;;;;;2.80;0.60;;;20.30;46.00;;;;;;5065575;28;20033;-64
2022/02/21 01:01:06;;;;;;;3.85;0.20;;;20.40;46.10;;;;;;5065255;28;20110;-64
2022/02/21 01:03:33;;;;;;;3.03;0.70;;;20.30;46.00;;;;;;5066860;28;20287;-64
2022/02/21 01:06:00;;;;;;;2.22;0.25;;;20.30;45.90;;;;;;5063638;28;20241;-64
2022/02/21 01:08:28;;;;;;;2.97;0.40;;;20.30;46.00;;;;;;5065270;28;20041;-63
2022/02/21 01:10:55;;;;;;;6.22;0.30;;;20.30;45.90;;;;;;5065238;28;20041;-64
2022/02/21 01:13:22;;;;;;;2.42;0.60;;;20.30;45.90;;;;;;5065590;28;20047;-64
2022/02/21 01:15:49;;;;;;;3.58;0.20;;;20.30;45.90;;;;;;5047885;28;20477;-64
2022/02/21 01:18:16;;;;;;;1.90;0.30;;;20.30;45.90;;;;;;5066488;28;20040;-63
2022/02/21 01:20:43;;;;;;;1.48;0.30;;;20.30;45.90;;;;;;5064856;28;20049;-64
2022/02/21 01:23:10;;;;;;;0.82;0.30;;;20.30;45.90;;;;;;5065817;28;20040;-64
2022/02/21 01:25:40;;;;;;;3.95;0.57;;;20.20;45.80;;;;;;5064940;28;20068;-64
2022/02/21 01:28:08;;;;;;;4.00;0.47;;;20.30;46.50;;;;;;5065188;28;20036;-64
2022/02/21 01:30:35;;;;;;;1.58;0.20;;;20.20;45.80;;;;;;5067079;28;20045;-63
2022/02/21 01:33:02;;;;;;;0.75;0.15;;;20.20;45.80;;;;;;5065311;28;20043;-65
2022/02/21 01:35:29;;;;;;;3.92;0.43;;;20.20;45.80;;;;;;5047358;28;20127;-64
2022/02/21 01:37:56;;;;;;;2.83;0.35;;;20.20;45.80;;;;;;5065122;28;20504;-64
2022/02/21 01:40:23;;;;;;;0.80;0.25;;;20.20;45.80;;;;;;5068740;28;20043;-64
2022/02/21 01:42:52;;;;;;;2.50;0.20;;;20.20;45.80;;;;;;5069500;28;20091;-64
2022/02/21 01:45:20;;;;;;;1.20;0.10;;;20.20;45.80;;;;;;5069352;28;20048;-64
2022/02/21 01:47:47;;;;;;;1.45;0.28;;;20.20;45.80;;;;;;5068535;28;20029;-64
2022/02/21 01:50:15;;;;;;;2.42;0.63;;;20.10;45.80;;;;;;5068316;28;20090;-64
2022/02/21 01:52:42;;;;;;;1.83;0.15;;;20.10;45.80;;;;;;5067046;28;20078;-64
2022/02/21 01:55:12;;;;;;;1.05;0.10;;;20.10;45.80;;;;;;5067878;28;20042;-64
2022/02/21 01:57:41;;;;;;;1.38;0.20;;;20.10;45.80;;;;;;5069744;28;20048;-64
2022/02/21 02:00:10;;;;;;;1.08;0.13;;;20.10;45.80;;;;;;5050736;28;20127;-64
2022/02/21 02:02:46;;;;;;;1.48;0.43;;;20.10;45.80;;;;;;5068320;28;20187;-64
2022/02/21 02:05:13;;;;;;;0.82;0.10;;;20.00;45.80;;;;;;5068027;28;20039;-64
2022/02/21 02:07:41;;;;;;;2.28;0.90;;;20.10;45.80;;;;;;5068130;28;20040;-64
2022/02/21 02:10:13;;;;;;;1.25;0.32;;;20.00;45.80;;;;;;5068288;28;20086;-64
2022/02/21 02:12:40;;;;;;;3.78;0.30;;;20.00;45.80;;;;;;5069889;28;20128;-64
2022/02/21 02:15:13;;;;;;;2.47;0.10;;;20.00;45.80;;;;;;5068129;28;20488;-64
2022/02/21 02:17:40;;;;;;;1.60;0.10;;;20.00;45.80;;;;;;5050140;28;20040;-64
2022/02/21 02:20:08;;;;;;;2.22;0.43;;;20.00;45.80;;;;;;5067714;28;20045;-64
2022/02/21 02:22:38;;;;;;;3.15;0.80;;;20.00;45.80;;;;;;5068480;28;20050;-64
2022/02/21 02:25:06;;;;;;;1.05;0.13;;;20.00;45.80;;;;;;5068341;28;20083;-64
2022/02/21 02:27:33;;;;;;;2.83;0.70;;;20.00;45.80;;;;;;5069547;28;20104;-65
2022/02/21 02:30:02;;;;;;;4.75;0.65;;;20.00;45.80;;;;;;5067750;28;20040;-65
2022/02/21 02:32:29;;;;;;;2.28;0.40;;;19.90;45.80;;;;;;5067741;28;20048;-64
2022/02/21 02:34:56;;;;;;;3.22;0.20;;;20.00;45.80;;;;;;5067845;28;20037;-64
2022/02/21 02:37:25;;;;;;;1.60;0.17;;;20.00;45.80;;;;;;5067422;28;20128;-65
2022/02/21 02:39:54;;;;;;;2.78;0.57;;;20.00;45.80;;;;;;5068421;28;20060;-65
2022/02/21 02:42:21;;;;;;;0.70;0.10;;;19.90;45.70;;;;;;5068536;28;20044;-64
2022/02/21 02:44:48;;;;;;;1.08;0.10;;;19.90;45.70;;;;;;5049887;28;20037;-65
2022/02/21 02:47:16;;;;;;;3.83;1.17;;;19.90;45.70;;;;;;5067483;28;20040;-64
2022/02/21 02:49:44;;;;;;;1.85;0.15;;;19.90;45.70;;;;;;5066568;28;20033;-64
2022/02/21 02:52:12;;;;;;;1.42;0.30;;;19.90;45.70;;;;;;5064404;28;20111;-64
2022/02/21 02:54:39;;;;;;;0.77;0.32;;;19.90;45.70;;;;;;5069556;28;20032;-64
2022/02/21 02:57:07;;;;;;;2.78;0.40;;;19.90;45.70;;;;;;5067133;28;20051;-64
2022/02/21 02:59:34;;;;;;;1.80;0.35;;;19.90;45.70;;;;;;5067149;28;20045;-65
2022/02/21 03:02:01;;;;;;;4.88;1.17;;;19.90;45.70;;;;;;5066921;28;20047;-64
2022/02/21 03:04:28;;;;;;;3.33;0.40;;;19.80;45.60;;;;;;5067427;28;20032;-67
2022/02/21 03:06:58;;;;;;;1.95;0.10;;;19.80;45.60;;;;;;5067554;28;20087;-63
2022/02/21 03:09:26;;;;;;;3.83;0.35;;;19.80;45.60;;;;;;5068080;28;20040;-65
2022/02/21 03:11:55;;;;;;;6.03;0.30;;;19.80;45.60;;;;;;5066928;28;20128;-64
2022/02/21 03:14:24;;;;;;;5.60;0.82;;;19.80;45.50;;;;;;5048978;28;20415;-64
2022/02/21 03:16:51;;;;;;;2.53;0.20;;;19.80;45.60;;;;;;5067022;28;20040;-64
2022/02/21 03:19:19;;;;;;;6.38;0.20;;;19.80;45.50;;;;;;5067539;28;20035;-67
2022/02/21 03:21:46;;;;;;;3.80;0.60;;;19.80;45.50;;;;;;5065623;28;20048;-65
2022/02/21 03:24:14;;;;;;;2.25;0.32;;;19.80;45.50;;;;;;5067786;28;20086;-64
2022/02/21 03:26:41;;;;;;;1.52;0.30;;;19.80;45.40;;;;;;5066788;28;20044;-65
2022/02/21 03:29:08;;;;;;;6.35;0.63;;;19.70;45.40;;;;;;5066705;28;20043;-65
2022/02/21 03:31:36;;;;;;;3.38;0.20;;;19.70;45.40;;;;;;5067135;28;20068;-64
2022/02/21 03:34:04;;;;;;;3.53;0.40;;;19.70;45.30;;;;;;5066739;28;20056;-65
2022/02/21 03:36:31;;;;;;;2.75;0.50;;;19.70;45.30;;;;;;5067813;28;20044;-65
2022/02/21 03:38:58;;;;;;;6.65;0.80;;;19.70;45.30;;;;;;5066488;28;20049;-64
2022/02/21 03:41:25;;;;;;;6.80;1.67;;;19.70;45.30;;;;;;5066771;28;20028;-65
2022/02/21 03:43:52;;;;;;;1.77;0.32;;;19.70;45.20;;;;;;5066373;28;20041;-64
2022/02/21 03:46:19;;;;;;;2.40;0.30;;;19.70;45.20;;;;;;5066545;28;20159;-64
2022/02/21 03:48:47;;;;;;;5.65;0.17;;;19.70;45.20;;;;;;5068355;28;20527;-64
2022/02/21 03:51:14;;;;;;;2.80;0.43;;;19.70;45.20;;;;;;5066317;28;20055;-65
2022/02/21 03:53:41;;;;;;;2.53;0.25;;;19.70;45.10;;;;;;5066571;28;20404;-65
2022/02/21 03:56:08;;;;;;;6.15;0.32;;;19.70;45.70;;;;;;5066238;28;20041;-64
2022/02/21 03:58:35;;;;;;;4.80;0.20;;;19.70;45.10;;;;;;5066435;28;20075;-65
2022/02/21 04:01:03;;;;;;;3.50;0.65;;;19.70;45.10;;;;;;5066297;28;20057;-65
2022/02/21 04:03:30;;;;;;;3.78;0.35;;;19.60;45.00;;;;;;5068063;28;20063;-65
2022/02/21 04:05:58;;;;;;;3.13;0.65;;;19.70;45.00;;;;;;5065478;28;20042;-65
2022/02/21 04:08:25;;;;;;;2.40;0.17;;;19.60;45.00;;;;;;5065863;28;20588;-65
2022/02/21 04:10:52;;;;;;;3.03;1.55;;;19.70;45.00;;;;;;5066305;28;20409;-65
2022/02/21 04:13:20;;;;;;;3.20;0.40;;;19.60;44.90;;;;;;5066575;28;20052;-65
2022/02/21 04:15:47;;;;;;;1.60;0.10;;;19.60;44.90;;;;;;5067826;28;20671;-65
2022/02/21 04:18:14;;;;;;;4.22;0.38;;;19.60;44.90;;;;;;5066643;28;20078;-65
2022/02/21 04:20:41;;;;;;;2.53;0.73;;;19.60;44.80;;;;;;5065349;28;20051;-65
2022/02/21 04:23:09;;;;;;;3.08;0.60;;;19.60;44.80;;;;;;5065627;28;20052;-65
2022/02/21 04:25:36;;;;;;;4.00;0.30;;;19.60;44.80;;;;;;5047244;28;20055;-65
2022/02/21 04:28:04;;;;;;;3.00;0.65;;;19.60;44.80;;;;;;5064688;28;20048;-65
2022/02/21 04:30:31;;;;;;;2.13;0.30;;;19.60;44.70;;;;;;5065746;28;20135;-65
2022/02/21 04:32:58;;;;;;;4.78;0.68;;;19.60;44.70;;;;;;5065971;28;20041;-64
2022/02/21 04:35:27;;;;;;;5.22;0.95;;;19.60;44.70;;;;;;5065388;28;20040;-65
2022/02/21 04:37:54;;;;;;;5.35;0.65;;;19.60;44.70;;;;;;5065446;28;20050;-65
2022/02/21 04:40:25;;;;;;;3.42;0.57;;;19.60;44.60;;;;;;5065879;28;20083;-65
2022/02/21 04:42:53;;;;;;;3.40;0.15;;;19.60;44.60;;;;;;5064117;28;20500;-68
2022/02/21 04:45:21;;;;;;;1.45;0.15;;;19.60;44.60;;;;;;5066590;28;20040;-65
2022/02/21 04:47:50;;;;;;;2.72;0.40;;;19.60;44.60;;;;;;5062398;28;20190;-65
2022/02/21 04:50:18;;;;;;;1.25;0.40;;;19.60;44.50;;;;;;5059689;28;20045;-65
2022/02/21 04:52:45;;;;;;;6.60;0.55;;;19.60;44.50;;;;;;5058954;28;20051;-65
2022/02/21 04:55:14;;;;;;;5.45;0.40;;;19.60;44.50;;;;;;5066006;28;20048;-65
2022/02/21 04:57:43;;;;;;;3.67;0.30;;;19.60;44.50;;;;;;5067022;28;20119;-65
2022/02/21 05:00:12;;;;;;;3.40;0.43;;;19.60;44.40;;;;;;5064888;28;20064;-65
2022/02/21 05:02:39;;;;;;;2.17;0.30;;;19.60;44.40;;;;;;5060306;28;20097;-65
2022/02/21 05:05:10;;;;;;;1.17;0.20;;;19.60;44.40;;;;;;5058214;28;20140;-65
2022/02/21 05:07:38;;;;;;;2.10;0.10;;;19.60;44.30;;;;;;5058872;28;20037;-65
2022/02/21 05:10:06;;;;;;;2.72;0.30;;;19.60;44.30;;;;;;5063617;28;20057;-65
2022/02/21 05:12:33;;;;;;;2.13;0.20;;;19.60;44.30;;;;;;5065404;28;20044;-65
2022/02/21 05:15:03;;;;;;;0.88;0.20;;;19.60;44.30;;;;;;5067271;28;20043;-65
2022/02/21 05:17:30;;;;;;;4.60;0.50;;;19.60;44.30;;;;;;5066472;28;20568;-65
2022/02/21 05:19:58;;;;;;;3.17;0.20;;;19.50;44.20;;;;;;5069004;28;20036;-64
2022/02/21 05:22:25;;;;;;;4.75;1.17;;;19.50;44.20;;;;;;5062387;28;20041;-65
2022/02/21 05:24:52;;;;;;;2.53;0.85;;;19.60;44.20;;;;;;5069656;28;20040;-65
2022/02/21 05:27:20;;;;;;;1.70;0.10;;;19.50;44.10;;;;;;5070256;28;20044;-65
2022/02/21 05:29:47;;;;;;;3.60;0.45;;;19.60;44.20;;;;;;5069066;28;20036;-65
2022/02/21 05:32:15;;;;;;;3.22;0.20;;;19.50;44.10;;;;;;5051056;28;20336;-65
2022/02/21 05:34:42;;;;;;;4.22;0.20;;;19.50;44.10;;;;;;5068942;28;20531;-65
2022/02/21 05:37:10;;;;;;;1.48;0.20;;;19.50;44.10;;;;;;5068313;28;20127;-65
2022/02/21 05:39:37;;;;;;;3.33;0.20;;;19.50;44.10;;;;;;5070383;28;20052;-64
2022/02/21 05:42:05;;;;;;;3.13;0.40;;;19.50;44.10;;;;;;5068508;28;20584;-65
2022/02/21 05:44:32;;;;;;;2.10;0.45;;;19.50;44.10;;;;;;5068561;28;20060;-65
2022/02/21 05:46:59;;;;;;;1.85;0.45;;;19.50;44.00;;;;;;5049424;28;20072;-65
2022/02/21 05:49:28;;;;;;;0.70;0.10;;;19.50;44.00;;;;;;5068482;28;20128;-65
2022/02/21 05:51:55;;;;;;;2.47;0.70;;;19.50;44.00;;;;;;5062867;28;20587;-65
2022/02/21 05:54:22;;;;;;;4.07;0.85;;;19.50;44.00;;;;;;5070076;28;20040;-65
2022/02/21 05:56:50;;;;;;;2.25;0.15;;;19.50;44.00;;;;;;5068275;28;20126;-65
2022/02/21 05:59:17;;;;;;;1.58;0.10;;;19.50;43.90;;;;;;5068084;28;20033;-65
2022/02/21 06:01:44;;;;;;;2.35;0.90;;;19.50;44.00;;;;;;5067670;28;20125;-65
2022/02/21 06:04:11;;;;;;;2.03;0.10;;;19.50;43.90;;;;;;5067317;28;20123;-65
2022/02/21 06:06:40;;;;;;;2.17;0.20;;;19.50;43.90;;;;;;5069832;28;20045;-65
2022/02/21 06:09:07;;;;;;;0.93;0.22;;;19.50;43.90;;;;;;5067952;28;20040;-65
2022/02/21 06:11:35;;;;;;;1.08;0.20;;;19.50;43.90;;;;;;5068102;28;20118;-65
2022/02/21 06:14:02;;;;;;;0.30;0.20;;;19.50;43.90;;;;;;5066972;28;20043;-65
2022/02/21 06:16:29;;;;;;;1.35;0.20;;;19.50;43.90;;;;;;5068009;28;20544;-65
2022/02/21 06:18:56;;;;;;;1.42;0.20;;;19.50;43.90;;;;;;5068208;28;20148;-63
2022/02/21 06:21:23;;;;;;;2.30;0.10;;;19.50;43.90;;;;;;5069267;28;20055;-65
2022/02/21 06:23:51;;;;;;;1.40;0.38;;;19.50;43.90;;;;;;5050003;28;20044;-65
2022/02/21 06:26:18;;;;;;;3.88;0.20;;;19.50;43.90;;;;;;5063860;28;20048;-65
2022/02/21 06:28:46;;;;;;;1.70;0.20;;;19.50;43.90;;;;;;5068201;28;20162;-64
2022/02/21 06:31:13;;;;;;;2.10;0.35;;;19.40;43.80;;;;;;5067763;28;20036;-65
2022/02/21 06:33:40;;;;;;;1.10;0.10;;;19.40;43.80;;;;;;5069356;28;20048;-65
2022/02/21 06:36:07;;;;;;;1.95;0.40;;;19.40;43.80;;;;;;5067871;28;20045;-65
2022/02/21 06:38:36;;;;;;;2.15;0.20;;;19.40;43.80;;;;;;5067394;28;20044;-65
2022/02/21 06:41:05;;;;;;;1.10;0.10;;;19.40;43.80;;;;;;5049658;28;20390;-65
2022/02/21 06:43:32;;;;;;;1.08;0.47;;;19.40;43.80;;;;;;5067991;28;20120;-65
2022/02/21 06:45:59;;;;;;;1.35;0.10;;;19.40;43.80;;;;;;5067464;28;20831;-65
2022/02/21 06:48:26;;;;;;;2.40;0.10;;;19.40;43.80;;;;;;5068907;28;20067;-65
2022/02/21 06:50:54;;;;;;;0.65;0.10;;;19.40;43.80;;;;;;5067527;28;20036;-65
2022/02/21 06:53:22;;;;;;;2.38;0.22;;;19.40;43.70;;;;;;5067455;28;20041;-65
2022/02/21 06:55:49;;;;;;;1.55;0.10;;;19.40;43.70;;;;;;5067043;28;20128;-65
2022/02/21 06:58:17;;;;;;;1.55;0.10;;;19.40;43.70;;;;;;5066775;28;20041;-65
2022/02/21 07:00:45;;;;;;;1.45;0.20;;;19.40;43.70;;;;;;5068968;28;20053;-65
2022/02/21 07:03:12;;;;;;;0.82;0.10;;;19.40;43.70;;;;;;5067378;28;20064;-65
2022/02/21 07:05:39;;;;;;;2.88;0.10;;;19.40;43.70;;;;;;5066859;28;20050;-65
2022/02/21 07:08:06;;;;;;;5.20;0.20;;;19.40;43.70;;;;;;5066729;28;20040;-65
2022/02/21 07:10:34;;;;;;;0.65;0.28;;;19.40;43.60;;;;;;5049003;28;20046;-65
2022/02/21 07:13:01;;;;;;;0.65;0.10;;;19.40;43.60;;;;;;5066851;28;20044;-65
2022/02/21 07:15:29;;;;;;;0.68;0.13;;;19.40;43.60;;;;;;5068336;28;20036;-65
2022/02/21 07:17:57;;;;;;;1.00;0.20;;;19.40;43.50;;;;;;5048506;28;20115;-65
2022/02/21 07:20:25;;;;;;;3.45;0.20;;;19.40;43.60;;;;;;5066262;28;20045;-65
2022/02/21 07:22:52;;;;;;;0.95;0.10;;;19.30;43.50;;;;;;5066553;28;20039;-65
2022/02/21 07:25:19;;;;;;;1.55;0.10;;;19.30;43.50;;;;;;5066569;28;20044;-65
2022/02/21 07:27:48;;;;;;;3.85;0.30;;;19.30;43.50;;;;;;5068283;28;20055;-65
2022/02/21 07:30:18;;;;;;;0.95;0.10;;;19.30;43.50;;;;;;5067230;28;20129;-64
2022/02/21 07:32:48;;;;;;;0.30;0.10;;;19.30;43.50;;;;;;5065903;28;20048;-65
2022/02/21 07:35:16;;;;;;;1.90;0.10;;;19.30;43.50;;;;;;5066042;28;20120;-65
2022/02/21 07:37:43;;;;;;;0.70;0.10;;;19.40;43.50;;;;;;5065772;28;20108;-65
2022/02/21 07:40:12;;;;;;;0.70;0.00;;;19.30;43.50;;;;;;5066317;28;20047;-65
2022/02/21 07:42:42;;;;;;;0.55;0.13;;;19.40;43.50;;;;;;5067811;28;20041;-65
2022/02/21 07:45:10;;;;;;;1.02;0.10;;;19.30;43.40;;;;;;5066023;28;20060;-65
2022/02/21 07:47:51;;;;;;;1.92;0.15;;;19.30;43.40;;;;;;5065849;28;20059;-65
2022/02/21 07:50:19;;;;;;;0.75;0.10;;;19.40;43.40;;;;;;5065801;28;20428;-65
2022/02/21 07:52:48;;;;;;;3.00;0.10;;;19.30;43.40;;;;;;5064478;28;20036;-65
2022/02/21 07:55:16;;;;;;;1.73;0.38;;;19.30;43.40;;;;;;5065599;28;20091;-65
2022/02/21 07:57:45;;;;;;;1.48;0.30;;;19.40;43.40;;;;;;5067658;28;20043;-65
2022/02/21 08:00:14;;;;;;;3.65;0.43;;;19.40;43.40;;;;;;5065807;28;20127;-65
2022/02/21 08:02:41;;;;;;;2.50;0.35;;;19.30;43.30;;;;;;5065912;28;20047;-65
2022/02/21 08:05:10;;;;;;;0.98;0.10;;;19.40;43.30;;;;;;5065393;28;20051;-65
2022/02/21 08:07:38;;;;;;;0.75;0.25;;;19.40;43.30;;;;;;5065689;28;20060;-64
2022/02/21 08:10:06;;;;;;;1.25;0.40;;;19.40;43.30;;;;;;5065428;28;20416;-65
2022/02/21 08:12:33;;;;;;;0.55;0.52;;;19.40;43.30;;;;;;5066935;28;20052;-65
2022/02/21 08:15:01;;;;;;;2.15;0.65;;;19.40;43.30;;;;;;5065175;28;20048;-64
2022/02/21 08:17:28;;;;;;;1.17;0.17;;;19.40;43.20;;;;;;5064706;28;20044;-65
2022/02/21 08:19:55;;;;;;;2.35;0.73;;;19.40;43.20;;;;;;5063834;28;20036;-65
2022/02/21 08:22:24;;;;;;;1.45;0.10;;;19.40;43.20;;;;;;5064741;28;20511;-64
2022/02/21 08:24:51;;;;;;;1.88;0.32;;;19.40;43.20;;;;;;5065839;28;20126;-64
2022/02/21 08:27:18;;;;;;;3.58;0.20;;;19.40;43.20;;;;;;5065591;28;20051;-64
2022/02/21 08:29:45;;;;;;;1.92;0.20;;;19.40;43.20;;;;;;5064866;28;20098;-64
2022/02/21 08:32:12;;;;;;;2.78;0.40;;;19.40;43.20;;;;;;5065262;28;20401;-65
2022/02/21 08:34:40;;;;;;;2.08;0.20;;;19.50;43.20;;;;;;5065268;28;20056;-64
2022/02/21 08:37:08;;;;;;;1.55;0.10;;;19.50;43.20;;;;;;5065405;28;20151;-64
2022/02/21 08:39:36;;;;;;;1.95;0.15;;;19.50;43.10;;;;;;5066923;28;20052;-65
2022/02/21 08:42:03;;;;;;;3.35;0.20;;;19.50;43.10;;;;;;5065350;28;20128;-65
2022/02/21 08:44:31;;;;;;;2.58;0.50;;;19.50;43.10;;;;;;5065148;28;20048;-65
2022/02/21 08:46:59;;;;;;;1.63;0.30;;;19.50;43.10;;;;;;5065184;28;20041;-64
2022/02/21 08:49:26;;;;;;;3.40;0.82;;;19.50;43.00;;;;;;5063017;28;20079;-64
2022/02/21 08:51:53;;;;;;;1.35;0.22;;;19.50;43.00;;;;;;5063491;28;20041;-64
2022/02/21 08:54:21;;;;;;;5.97;0.45;;;19.50;43.00;;;;;;5066208;28;20123;-65
2022/02/21 08:56:50;;;;;;;1.95;0.13;;;19.50;43.00;;;;;;5065219;28;20040;-65
2022/02/21 08:59:18;;;;;;;3.92;0.60;;;19.50;42.90;;;;;;5065014;28;20049;-65
2022/02/21 09:01:45;;;;;;;3.35;0.45;;;19.50;42.90;;;;;;5065438;28;20047;-65
2022/02/21 09:04:15;;;;;;;1.40;0.17;;;19.60;43.00;;;;;;5064804;28;20131;-66
2022/02/21 09:06:42;;;;;;;1.40;0.20;;;19.60;43.00;;;;;;5066257;28;20051;-66
2022/02/21 09:09:09;;;;;;;1.60;0.25;;;19.60;43.50;;;;;;5064182;28;20074;-66
2022/02/21 09:11:36;;;;;;;0.45;0.10;;;19.60;42.90;;;;;;5064806;28;20048;-65
2022/02/21 09:14:05;;;;;;;1.52;0.20;;;19.60;42.90;;;;;;5065217;28;20029;-65
2022/02/21 09:16:32;;;;;;;1.02;0.45;;;19.70;42.90;;;;;;5064871;28;20043;-65
2022/02/21 09:18:59;;;;;;;1.05;0.10;;;19.70;42.90;;;;;;5065288;28;20048;-64
2022/02/21 09:21:26;;;;;;;1.00;0.20;;;19.70;42.80;;;;;;5065924;28;20135;-65
2022/02/21 09:23:53;;;;;;;1.60;0.52;;;19.70;42.80;;;;;;5064552;28;20048;-65
2022/02/21 09:26:20;;;;;;;2.72;0.57;;;19.70;42.70;;;;;;5064659;28;20134;-65
2022/02/21 09:28:48;;;;;;;0.60;0.30;;;19.70;42.70;;;;;;5065062;28;20036;-65
2022/02/21 09:31:16;;;;;;;2.50;0.20;;;19.80;42.60;;;;;;5064475;28;20072;-65
2022/02/21 09:33:43;;;;;;;2.83;0.52;;;19.80;42.60;;;;;;5066636;28;20044;-65
2022/02/21 09:36:10;;;;;;;0.68;0.13;;;19.80;42.50;;;;;;5064381;28;20118;-65
2022/02/21 09:38:37;;;;;;;1.33;0.40;;;19.80;42.50;;;;;;5060719;28;20493;-65
2022/02/21 09:41:05;;;;;;;2.03;0.57;;;19.80;42.50;;;;;;5064170;28;20129;-65
2022/02/21 09:43:32;;;;;;;1.23;0.30;;;19.90;42.50;;;;;;5064646;28;20113;-65
2022/02/21 09:46:01;;;;;;;4.07;0.20;;;19.90;42.40;;;;;;5064892;28;20076;-65
2022/02/21 09:48:31;;;;;;;3.00;0.15;;;19.90;42.40;;;;;;5066027;28;20040;-65
2022/02/21 09:51:00;;;;;;;4.43;0.43;;;19.90;42.30;;;;;;5061952;28;20500;-65
2022/02/21 09:53:29;;;;;;;7.18;0.55;;;19.90;42.30;;;;;;5063899;28;20033;-65
2022/02/21 09:55:56;;;;;;;2.60;0.30;;;19.90;42.20;;;;;;5064542;28;20047;-65
2022/02/21 09:58:24;;;;;;;3.05;0.30;;;19.90;42.20;;;;;;5064379;28;20045;-65
2022/02/21 10:00:53;;;;;;;3.03;0.20;;;20.00;42.20;;;;;;5068024;28;20045;-65
2022/02/21 10:03:45;;;;;;;1.38;0.22;;;20.00;42.10;;;;;;5069135;28;20098;-65
2022/02/21 10:06:17;;;;;;;5.82;0.98;;;20.10;42.10;;;;;;5068059;28;20041;-64
2022/02/21 10:08:52;;;;;;;0.38;0.10;;;20.00;42.10;;;;;;5067328;28;20155;-64
2022/02/21 10:11:23;;;;;;;0.70;0.30;;;20.10;42.00;;;;;;5067645;28;20040;-64
2022/02/21 10:14:00;;;;;;;3.42;0.10;;;20.10;42.00;;;;;;5067831;28;20036;-65
2022/02/21 10:16:38;;;;;;;2.50;0.40;;;20.10;41.90;;;;;;5061359;28;20043;-63
2022/02/21 10:19:20;;;;;;;0.73;0.30;;;20.10;41.90;;;;;;5067581;28;20052;-63
2022/02/21 10:21:59;;;;;;;2.47;0.30;;;20.10;41.90;;;;;;5065786;28;20071;-63
2022/02/21 10:24:28;;;;;;;1.08;0.30;;;20.10;41.80;;;;;;5068514;28;20106;-63
2022/02/21 10:26:57;;;;;;;2.10;0.10;;;20.20;41.80;;;;;;5067299;28;20036;-63
2022/02/21 10:29:25;;;;;;;3.63;0.40;;;20.20;41.80;;;;;;5067430;28;20079;-63
2022/02/21 10:31:52;;;;;;;2.35;0.20;;;20.20;41.70;;;;;;5066356;28;20028;-64
2022/02/21 10:34:20;;;;;;;1.38;0.20;;;20.20;41.70;;;;;;5067636;28;20048;-65
2022/02/21 10:36:47;;;;;;;0.52;0.25;;;20.30;41.70;;;;;;5067453;28;20051;-65
2022/02/21 10:39:16;;;;;;;2.30;0.30;;;20.30;41.60;;;;;;5067801;28;20486;-64
2022/02/21 10:41:47;;;;;;;1.90;0.17;;;20.30;42.10;;;;;;5067246;28;20047;-65
2022/02/21 10:44:19;;;;;;;3.15;0.25;;;20.40;41.50;;;;;;5067399;28;20521;-64
2022/02/21 10:47:12;;;;;;;0.98;0.20;;;20.40;41.40;;;;;;5067566;28;20040;-64
2022/02/21 10:49:46;;;;;;;2.00;0.28;;;20.50;41.30;;;;;;5062939;28;20579;-64
2022/02/21 10:52:17;;;;;;;4.90;1.83;;;20.50;41.30;;;;;;5062686;28;20136;-64
2022/02/21 10:54:44;;;;;;;2.67;0.10;;;20.50;41.20;;;;;;5068954;28;20048;-64
2022/02/21 10:57:13;;;;;;;3.38;0.20;;;20.60;41.20;;;;;;5067269;28;20524;-63
2022/02/21 10:59:40;;;;;;;6.60;0.40;;;20.60;41.10;;;;;;5066204;28;20044;-63
2022/02/21 11:02:10;;;;;;;2.88;0.95;;;20.60;41.10;;;;;;5066905;28;20052;-63
2022/02/21 11:04:39;;;;;;;3.33;0.25;;;20.70;41.00;;;;;;5067006;28;20045;-63
2022/02/21 11:07:07;;;;;;;4.10;0.52;;;20.70;40.90;;;;;;5049227;28;20044;-63
2022/02/21 11:09:35;;;;;;;0.93;0.40;;;20.80;40.90;;;;;;5068531;28;20044;-64
2022/02/21 11:12:05;;;;;;;4.35;0.50;;;20.80;40.80;;;;;;5065820;28;20048;-64
2022/02/21 11:14:33;;;;;;;4.25;0.20;;;20.80;40.70;;;;;;5066504;28;20056;-64
2022/02/21 11:17:02;;;;;;;4.65;1.25;;;20.90;40.70;;;;;;5066726;28;20071;-64
2022/02/21 11:19:29;;;;;;;1.25;0.10;;;20.90;40.60;;;;;;5066453;28;20036;-63
2022/02/21 11:21:57;;;;;;;2.75;0.20;;;20.90;40.50;;;;;;5067033;28;20074;-64
2022/02/21 11:24:27;;;;;;;2.88;0.30;;;21.00;40.50;;;;;;5067159;28;20086;-63
2022/02/21 11:27:07;;;;;;;2.55;0.40;;;21.00;40.50;;;;;;5066398;28;20562;-64
2022/02/21 11:29:40;;;;;;;2.85;0.38;;;21.10;40.40;;;;;;5066791;28;20040;-64
2022/02/21 11:32:07;;;;;;;1.05;0.30;;;21.10;40.30;;;;;;5066512;28;20561;-65
2022/02/21 11:34:45;;;;;;;4.95;0.40;;;21.10;40.20;;;;;;5066021;28;20037;-64
2022/02/21 11:37:24;;;;;;;1.92;0.20;;;21.10;40.20;;;;;;5065638;28;20132;-63
2022/02/21 11:39:58;;;;;;;2.63;0.35;;;21.10;40.10;;;;;;5063471;28;20136;-63
2022/02/21 11:42:30;;;;;;;3.70;0.40;;;21.10;40.00;;;;;;5065876;28;20047;-64
2022/02/21 11:44:59;;;;;;;3.00;0.55;;;21.20;40.10;;;;;;5065757;28;20032;-63
2022/02/21 11:47:35;;;;;;;4.07;0.73;;;21.10;40.00;;;;;;5066137;28;20044;-64
2022/02/21 11:50:05;;;;;;;4.13;0.30;;;21.20;40.70;;;;;;5065799;28;20768;-64
2022/02/21 11:52:36;;;;;;;3.55;1.00;;;21.10;40.00;;;;;;5060681;28;20039;-64
2022/02/21 11:55:35;;;;;;;3.25;0.40;;;21.10;40.00;;;;;;5065790;28;20045;-64
2022/02/21 11:58:36;;;;;;;3.55;0.40;;;21.20;40.10;;;;;;5064323;28;20094;-65
2022/02/21 12:01:20;;;;;;;4.15;0.68;;;21.10;40.10;;;;;;5064222;28;20040;-62
2022/02/21 12:04:13;;;;;;;2.35;0.20;;;21.10;40.10;;;;;;5063460;28;20048;-62
2022/02/21 12:06:51;;;;;;;2.03;0.30;;;21.10;40.10;;;;;;5067032;28;20075;-63
2022/02/21 12:09:18;;;;;;;1.02;0.10;;;21.10;40.10;;;;;;5066703;28;20068;-63
2022/02/21 12:11:46;;;;;;;2.15;0.17;;;21.10;40.20;;;;;;5061642;28;20047;-63
2022/02/21 12:14:19;;;;;;;0.85;0.30;;;21.10;40.20;;;;;;5059369;28;20107;-63
2022/02/21 12:17:07;;;;;;;4.85;1.05;;;21.10;40.20;;;;;;5059772;28;20051;-63
2022/02/21 12:19:36;;;;;;;2.45;0.30;;;21.10;40.20;;;;;;5062491;28;20127;-63
2022/02/21 12:22:12;;;;;;;2.75;0.32;;;21.10;40.20;;;;;;5065621;28;20053;-63
2022/02/21 12:25:12;;;;;;;3.63;0.40;;;21.10;40.30;;;;;;5066473;28;20051;-63
2022/02/21 12:28:13;;;;;;;2.45;0.40;;;21.10;40.20;;;;;;5066364;28;20060;-63
2022/02/21 12:30:43;;;;;;;0.95;0.20;;;21.10;40.30;;;;;;5066725;28;20483;-63
2022/02/21 12:33:12;;;;;;;2.22;0.30;;;21.10;40.40;;;;;;5063805;28;20080;-63
2022/02/21 12:35:52;;;;;;;2.92;0.47;;;21.10;40.30;;;;;;5060507;28;20158;-63
2022/02/21 12:38:21;;;;;;;1.02;0.40;;;21.20;40.40;;;;;;5060560;28;20079;-63
2022/02/21 12:41:04;;;;;;;4.65;0.55;;;21.10;40.30;;;;;;5064984;28;20040;-64
2022/02/21 12:43:50;;;;;;;2.03;0.52;;;21.20;40.20;;;;;;5062749;28;20070;-63
2022/02/21 12:46:19;;;;;;;1.67;0.30;;;21.20;40.20;;;;;;5065298;28;20135;-62
2022/02/21 12:48:47;;;;;;;1.75;0.20;;;21.10;40.20;;;;;;5067311;28;20129;-64
2022/02/21 12:51:25;;;;;;;0.57;0.10;;;21.10;40.20;;;;;;5059382;28;20563;-64
2022/02/21 12:54:03;;;;;;;2.63;1.00;;;21.20;40.20;;;;;;5061651;28;20135;-65
2022/02/21 12:56:41;;;;;;;2.72;0.47;;;21.10;40.20;;;;;;5065050;28;20093;-64
2022/02/21 12:59:11;;;;;;;2.55;0.40;;;21.10;40.20;;;;;;5064936;28;20136;-64